Time;durP1;ratioP1;P1;durP2;ratioP2;P2;SDS_P1;SDS_P2;PMS_P1;PMS_P2;Temp;Humidity;BMP_temperature;BMP_pressure;BME280_temperature;BME280_humidity;BME280_pressure;Samples;Min_cycle;Max_cycle;Signal;HPM_P1;HPM_P2
2023/11/19 00:01:28;;;;;;;19.40;5.57;;;14.50;99.90;;;13.98;100.00;101400.53;4200099;28;20036;-70
2023/11/19 00:03:29;;;;;;;18.70;3.72;;;14.50;99.90;;;13.93;100.00;101406.31;4201237;28;20016;-70
2023/11/19 00:05:30;;;;;;;20.42;4.28;;;14.40;99.90;;;13.89;100.00;101415.56;4174328;28;20028;-70
2023/11/19 00:07:30;;;;;;;13.70;3.20;;;14.40;99.90;;;13.91;100.00;101412.78;4184774;28;20024;-70
2023/11/19 00:09:31;;;;;;;25.13;4.70;;;14.40;99.90;;;13.90;100.00;101406.63;4198858;28;20031;-70
2023/11/19 00:11:32;;;;;;;18.13;4.32;;;14.40;99.90;;;13.84;100.00;101404.63;4195788;28;20099;-70
2023/11/19 00:13:33;;;;;;;21.52;4.57;;;14.40;99.90;;;13.85;100.00;101401.81;4193886;28;20089;-70
2023/11/19 00:15:33;;;;;;;18.13;5.32;;;14.40;99.90;;;13.87;100.00;101404.28;4189138;28;20476;-70
2023/11/19 00:17:34;;;;;;;19.45;4.32;;;14.40;99.90;;;13.84;100.00;101399.31;4184647;28;20029;-70
2023/11/19 00:19:35;;;;;;;25.10;6.50;;;14.40;99.90;;;13.83;100.00;101403.78;4183318;28;20021;-70
2023/11/19 00:21:36;;;;;;;27.58;6.28;;;14.30;99.90;;;13.87;100.00;101399.00;4191780;28;20024;-70
2023/11/19 00:23:37;;;;;;;27.88;7.45;;;14.40;99.90;;;13.86;100.00;101398.16;4189966;28;20029;-70
2023/11/19 00:25:39;;;;;;;29.52;7.28;;;14.40;99.90;;;13.94;100.00;101412.44;4212829;28;20534;-70
2023/11/19 00:27:40;;;;;;;26.17;6.93;;;14.40;99.90;;;13.97;100.00;101412.97;4196676;28;20395;-70
2023/11/19 00:29:40;;;;;;;20.35;4.97;;;14.40;99.90;;;13.93;100.00;101408.13;4184698;28;20024;-70
2023/11/19 00:31:41;;;;;;;30.83;6.88;;;14.40;99.90;;;13.97;100.00;101420.91;4184765;28;20032;-70
2023/11/19 00:33:42;;;;;;;25.40;5.35;;;14.40;99.90;;;13.93;100.00;101416.09;4192372;28;20033;-70
2023/11/19 00:35:43;;;;;;;33.50;7.30;;;14.40;99.90;;;13.93;100.00;101398.34;4185439;28;20029;-70
2023/11/19 00:37:45;;;;;;;27.48;6.97;;;14.40;99.90;;;13.90;100.00;101397.84;4187722;28;20029;-69
2023/11/19 00:39:46;;;;;;;20.58;4.93;;;14.40;99.90;;;13.84;100.00;101388.72;4197840;28;20017;-70
2023/11/19 00:41:47;;;;;;;26.38;4.15;;;14.30;99.90;;;13.84;100.00;101378.09;4186151;28;20083;-70
2023/11/19 00:43:49;;;;;;;22.02;6.28;;;14.30;99.90;;;13.88;100.00;101395.34;4186480;28;20079;-69
2023/11/19 00:45:50;;;;;;;32.28;7.45;;;14.30;99.90;;;13.83;100.00;101387.88;4187480;28;20050;-69
2023/11/19 00:47:51;;;;;;;24.52;6.53;;;14.30;99.90;;;13.81;100.00;101394.34;4207242;28;20035;-70
2023/11/19 00:49:52;;;;;;;19.25;4.22;;;14.30;99.90;;;13.75;100.00;101384.38;4197278;28;20028;-69
2023/11/19 00:51:53;;;;;;;26.63;6.53;;;14.30;99.90;;;13.76;100.00;101386.03;4193951;28;20039;-70
2023/11/19 00:53:54;;;;;;;22.13;6.32;;;14.30;99.90;;;13.78;100.00;101384.88;4202624;28;20033;-70
2023/11/19 00:55:55;;;;;;;26.98;6.05;;;14.30;99.90;;;13.69;100.00;101382.34;4193697;28;20035;-70
2023/11/19 00:57:56;;;;;;;29.17;5.85;;;14.20;99.90;;;13.60;100.00;101380.66;4187116;28;20026;-70
2023/11/19 00:59:57;;;;;;;26.23;5.18;;;14.20;99.90;;;13.58;100.00;101380.00;4187367;28;20393;-70
2023/11/19 01:02:02;;;;;;;30.70;5.75;;;14.10;99.90;;;13.57;100.00;101381.81;4187291;28;20476;-69
2023/11/19 01:04:03;;;;;;;32.97;7.72;;;14.10;99.90;;;13.49;100.00;101383.63;4186504;28;20416;-69
2023/11/19 01:06:05;;;;;;;29.63;8.68;;;14.00;99.90;;;13.41;100.00;101391.53;4187063;28;20024;-70
2023/11/19 01:08:06;;;;;;;27.20;5.78;;;13.90;99.90;;;13.39;100.00;101396.16;4193041;28;20028;-70
2023/11/19 01:10:08;;;;;;;43.08;8.40;;;13.90;99.90;;;13.39;100.00;101398.78;4196706;28;20084;-70
2023/11/19 01:12:10;;;;;;;24.55;5.82;;;13.90;99.90;;;13.41;100.00;101389.69;4187078;28;20090;-70
2023/11/19 01:14:11;;;;;;;30.30;6.68;;;13.90;99.90;;;13.43;100.00;101389.53;4210144;28;20480;-70
2023/11/19 01:16:12;;;;;;;27.00;5.10;;;13.90;99.90;;;13.40;100.00;101392.50;4203683;28;20040;-70
2023/11/19 01:18:13;;;;;;;33.78;7.43;;;13.90;99.90;;;13.42;100.00;101399.31;4203588;28;20028;-70
2023/11/19 01:20:14;;;;;;;26.83;6.10;;;13.90;99.90;;;13.39;100.00;101394.31;4202337;28;20071;-70
2023/11/19 01:22:15;;;;;;;27.92;5.57;;;13.90;99.90;;;13.35;100.00;101381.56;4203478;28;20569;-70
2023/11/19 01:24:16;;;;;;;30.45;8.35;;;13.80;99.90;;;13.22;100.00;101385.47;4203315;28;20028;-70
2023/11/19 01:26:17;;;;;;;47.47;7.15;;;13.80;99.90;;;13.22;100.00;101390.78;4203449;28;20032;-69
2023/11/19 01:28:18;;;;;;;27.10;5.70;;;13.70;99.90;;;13.20;100.00;101387.44;4203415;28;20036;-70
2023/11/19 01:30:19;;;;;;;29.30;6.53;;;13.70;99.90;;;13.28;100.00;101389.31;4202165;28;20028;-70
2023/11/19 01:32:20;;;;;;;28.38;6.13;;;13.80;99.90;;;13.27;100.00;101391.13;4203077;28;20037;-69
2023/11/19 01:34:21;;;;;;;32.05;8.00;;;13.80;99.90;;;13.23;100.00;101399.56;4197513;28;20073;-70
2023/11/19 01:36:22;;;;;;;36.20;5.75;;;13.70;99.90;;;13.22;100.00;101403.19;4186872;28;20395;-70
2023/11/19 01:38:22;;;;;;;31.63;6.45;;;13.70;99.90;;;13.12;100.00;101397.16;4186582;28;20055;-70
2023/11/19 01:40:23;;;;;;;25.58;7.10;;;13.60;99.90;;;13.16;100.00;101404.66;4186342;28;20395;-70
2023/11/19 01:42:25;;;;;;;31.75;6.40;;;13.60;99.90;;;13.12;100.00;101395.34;4190268;28;20058;-70
2023/11/19 01:44:26;;;;;;;33.60;6.95;;;13.60;99.90;;;13.19;100.00;101396.38;4195042;28;20059;-70
2023/11/19 01:46:27;;;;;;;40.67;9.18;;;13.70;99.90;;;13.28;100.00;101398.09;4207358;28;20028;-69
2023/11/19 01:48:29;;;;;;;41.10;8.40;;;13.70;99.90;;;13.31;100.00;101394.28;4201768;28;20047;-70
2023/11/19 01:50:31;;;;;;;28.92;6.32;;;13.80;99.90;;;13.24;100.00;101391.44;4201947;28;20420;-69
2023/11/19 01:52:37;;;;;;;36.72;7.18;;;13.80;99.90;;;13.30;100.00;101393.47;4218879;28;20092;-69
2023/11/19 01:54:38;;;;;;;32.25;5.78;;;13.80;99.90;;;13.32;100.00;101397.78;4208695;28;20070;-70
2023/11/19 01:56:43;;;;;;;32.47;6.28;;;13.80;99.90;;;13.25;100.00;101394.94;4187299;28;20025;-70
2023/11/19 01:58:46;;;;;;;44.70;8.55;;;13.70;99.90;;;13.12;100.00;101382.09;4186340;28;20025;-70
2023/11/19 02:00:47;;;;;;;31.13;6.88;;;13.70;99.90;;;13.06;100.00;101406.53;4204104;28;20024;-70
2023/11/19 02:02:48;;;;;;;34.95;7.05;;;13.60;99.90;;;13.02;100.00;101404.38;4201530;28;20039;-70
2023/11/19 02:04:51;;;;;;;36.45;7.35;;;13.60;99.90;;;12.98;100.00;101397.69;4186961;28;20051;-70
2023/11/19 02:06:54;;;;;;;43.10;7.97;;;13.50;99.90;;;12.97;100.00;101406.63;4197264;28;20111;-70
2023/11/19 02:08:54;;;;;;;40.55;7.35;;;13.50;99.90;;;12.91;100.00;101389.53;4201481;28;20483;-70
2023/11/19 02:10:59;;;;;;;41.45;7.43;;;13.50;99.90;;;12.88;100.00;101392.50;4189810;28;20051;-70
2023/11/19 02:13:02;;;;;;;38.95;7.07;;;13.40;99.90;;;12.92;100.00;101393.03;4188257;28;20044;-70
2023/11/19 02:15:03;;;;;;;42.70;8.85;;;13.50;99.90;;;12.87;100.00;101393.50;4184793;28;20029;-70
2023/11/19 02:17:04;;;;;;;40.17;6.82;;;13.40;99.90;;;12.83;100.00;101389.50;4201259;28;20127;-70
2023/11/19 02:19:06;;;;;;;40.90;7.20;;;13.40;99.90;;;12.88;100.00;101405.75;4202381;28;20033;-70
2023/11/19 02:21:07;;;;;;;42.65;8.88;;;13.40;99.90;;;12.91;100.00;101400.13;4202646;28;20479;-70
2023/11/19 02:23:08;;;;;;;33.72;6.32;;;13.40;99.90;;;12.87;100.00;101403.25;4202516;28;20081;-70
2023/11/19 02:25:25;;;;;;;37.95;8.93;;;13.40;99.90;;;12.87;100.00;101390.84;4184364;28;20031;-70
2023/11/19 02:27:38;;;;;;;43.17;7.95;;;13.40;99.90;;;12.82;100.00;101390.47;4201263;28;20446;-70
2023/11/19 02:29:39;;;;;;;37.45;7.75;;;13.30;99.90;;;12.78;100.00;101383.84;4202495;28;20032;-70
2023/11/19 02:31:40;;;;;;;38.97;7.40;;;13.30;99.90;;;12.81;100.00;101394.13;4201172;28;20511;-70
2023/11/19 02:33:41;;;;;;;53.20;7.55;;;13.30;99.90;;;12.82;100.00;101387.00;4201305;28;20045;-70
2023/11/19 02:35:42;;;;;;;31.02;6.13;;;13.30;99.90;;;12.69;100.00;101382.91;4184812;28;20028;-70
2023/11/19 02:37:43;;;;;;;29.08;5.57;;;13.30;99.90;;;12.76;100.00;101399.88;4186018;28;20029;-70
2023/11/19 02:39:43;;;;;;;39.90;6.90;;;13.30;99.90;;;12.73;100.00;101386.09;4205116;28;20399;-70
2023/11/19 02:41:44;;;;;;;44.45;7.88;;;13.30;99.90;;;12.73;100.00;101383.44;4200976;28;20031;-70
2023/11/19 02:43:48;;;;;;;35.95;7.25;;;13.30;99.90;;;12.72;100.00;101384.47;4198971;28;20025;-70
2023/11/19 02:45:49;;;;;;;30.00;6.78;;;13.30;99.90;;;12.72;100.00;101392.41;4185775;28;20025;-70
2023/11/19 02:47:50;;;;;;;37.45;7.32;;;13.30;99.90;;;12.72;100.00;101390.56;4185603;28;20395;-70
2023/11/19 02:49:53;;;;;;;39.35;6.88;;;13.30;99.90;;;12.68;100.00;101383.94;4185617;28;20156;-70
2023/11/19 02:51:53;;;;;;;29.33;7.03;;;13.20;99.90;;;12.67;100.00;101386.72;4185596;28;20086;-70
2023/11/19 02:53:54;;;;;;;42.80;8.68;;;13.20;99.90;;;12.61;100.00;101380.22;4185334;28;20017;-69
2023/11/19 02:56:01;;;;;;;50.00;9.35;;;13.20;99.90;;;12.54;100.00;101370.41;4185350;28;20100;-70
2023/11/19 02:58:05;;;;;;;36.88;6.93;;;13.10;99.90;;;12.52;100.00;101382.94;4184889;28;20071;-70
2023/11/19 03:00:12;;;;;;;;;;;13.10;99.90;;;12.48;100.00;101381.63;4193691;28;20027;-70
2023/11/19 03:02:15;;;;;;;40.15;7.30;;;13.10;99.90;;;12.42;100.00;101379.56;4193691;28;20384;-70
2023/11/19 03:04:20;;;;;;;45.17;8.43;;;13.00;99.90;;;12.39;100.00;101377.22;4195464;28;20028;-70
2023/11/19 03:06:24;;;;;;;42.53;7.40;;;12.90;99.90;;;12.43;100.00;101375.94;4184623;28;21583;-70
2023/11/19 03:08:24;;;;;;;36.88;7.53;;;13.00;99.90;;;12.41;100.00;101372.59;4185475;28;20028;-70
2023/11/19 03:10:25;;;;;;;34.97;6.43;;;12.90;99.90;;;12.42;100.00;101383.06;4185150;28;20462;-70
2023/11/19 03:12:26;;;;;;;33.28;7.18;;;13.00;99.90;;;12.40;100.00;101374.41;4185280;28;20369;-70
2023/11/19 03:14:27;;;;;;;47.47;9.27;;;12.90;99.90;;;12.39;100.00;101356.91;4185199;28;20035;-70
2023/11/19 03:16:28;;;;;;;45.92;8.05;;;12.90;99.90;;;12.49;100.00;101367.38;4195685;28;20032;-70
2023/11/19 03:18:29;;;;;;;43.45;7.43;;;13.00;99.90;;;12.41;100.00;101359.38;4200734;28;20032;-70
2023/11/19 03:20:30;;;;;;;45.20;7.60;;;12.90;99.90;;;12.47;100.00;101366.72;4201794;28;20016;-70
2023/11/19 03:22:31;;;;;;;45.22;7.63;;;13.00;99.90;;;12.48;100.00;101363.09;4201608;28;20020;-70
2023/11/19 03:24:32;;;;;;;39.58;7.18;;;13.00;99.90;;;12.43;100.00;101357.41;4201722;28;20495;-69
2023/11/19 03:26:33;;;;;;;41.53;10.57;;;12.90;99.90;;;12.41;100.00;101354.09;4201808;28;20012;-70
2023/11/19 03:28:34;;;;;;;41.58;7.50;;;12.90;99.90;;;12.40;100.00;101355.91;4201912;28;20060;-70
2023/11/19 03:30:35;;;;;;;40.42;6.30;;;12.90;99.90;;;12.43;100.00;101360.06;4183687;28;20531;-70
2023/11/19 03:32:36;;;;;;;42.42;8.13;;;12.90;99.90;;;12.44;100.00;101362.56;4201791;28;20415;-70
2023/11/19 03:34:37;;;;;;;46.30;8.70;;;13.00;99.90;;;12.54;100.00;101365.13;4192919;28;20033;-70
2023/11/19 03:36:39;;;;;;;49.38;7.72;;;13.00;99.90;;;12.55;100.00;101359.66;4183864;28;20027;-70
2023/11/19 03:38:42;;;;;;;63.00;9.95;;;13.10;99.90;;;12.64;100.00;101363.19;4198621;28;20029;-69
2023/11/19 03:40:43;;;;;;;38.90;7.60;;;13.10;99.90;;;12.65;100.00;101360.41;4195420;28;20017;-69
2023/11/19 03:42:44;;;;;;;48.53;6.85;;;13.20;99.90;;;12.74;100.00;101359.50;4192237;28;20033;-69
2023/11/19 03:44:45;;;;;;;47.50;7.97;;;13.30;99.90;;;12.82;100.00;101353.41;4200268;28;20025;-70
2023/11/19 03:46:47;;;;;;;39.22;7.47;;;13.30;99.90;;;12.83;100.00;101357.72;4186568;28;20103;-69
2023/11/19 03:48:49;;;;;;;41.65;6.60;;;13.30;99.90;;;12.84;100.00;101362.03;4188956;28;20487;-69
2023/11/19 03:50:50;;;;;;;45.30;8.15;;;13.40;99.90;;;12.87;100.00;101376.78;4193046;28;20407;-70
2023/11/19 03:52:51;;;;;;;37.53;7.55;;;13.40;99.90;;;12.84;100.00;101377.94;4184915;28;20025;-70
2023/11/19 03:54:51;;;;;;;32.50;7.00;;;13.40;99.90;;;12.85;100.00;101370.78;4213641;28;20036;-70
2023/11/19 03:56:53;;;;;;;52.60;10.48;;;13.40;99.90;;;12.80;100.00;101371.28;4200284;28;20032;-69
2023/11/19 03:58:54;;;;;;;36.47;7.05;;;13.40;99.90;;;12.75;100.00;101374.38;4193305;28;20033;-70
2023/11/19 04:00:54;;;;;;;44.05;7.38;;;13.30;99.90;;;12.75;100.00;101376.22;4206826;28;20023;-70
2023/11/19 04:02:55;;;;;;;44.30;8.43;;;13.30;99.90;;;12.69;100.00;101367.03;4186422;28;20032;-70
2023/11/19 04:04:56;;;;;;;42.15;8.10;;;13.30;99.90;;;12.64;100.00;101371.13;4185101;28;20025;-70
2023/11/19 04:06:57;;;;;;;43.67;7.75;;;13.20;99.90;;;12.61;100.00;101371.44;4185008;28;20480;-70
2023/11/19 04:08:58;;;;;;;55.10;7.68;;;13.20;99.90;;;12.64;100.00;101376.44;4184599;28;20086;-70
2023/11/19 04:11:00;;;;;;;41.78;7.88;;;13.20;99.90;;;12.60;100.00;101383.03;4198118;28;20078;-69
2023/11/19 04:13:01;;;;;;;45.35;6.75;;;13.20;99.90;;;12.58;100.00;101377.03;4195979;28;20099;-70
2023/11/19 04:15:03;;;;;;;36.53;6.97;;;13.10;99.90;;;12.62;100.00;101375.75;4196986;28;20029;-70
2023/11/19 04:17:04;;;;;;;46.88;7.47;;;13.10;99.90;;;12.50;100.00;101372.53;4187954;28;20036;-70
2023/11/19 04:19:05;;;;;;;48.05;7.85;;;13.10;99.90;;;12.45;100.00;101372.16;4214723;28;20518;-70
2023/11/19 04:21:07;;;;;;;42.17;6.68;;;13.00;99.90;;;12.36;100.00;101365.16;4203187;28;20017;-70
2023/11/19 04:23:08;;;;;;;54.35;7.57;;;13.00;99.90;;;12.38;100.00;101370.28;4204429;28;20035;-69
2023/11/19 04:25:09;;;;;;;35.50;7.03;;;12.90;99.90;;;12.37;100.00;101371.25;4204171;28;20542;-70
2023/11/19 04:27:10;;;;;;;46.58;6.93;;;13.00;99.90;;;12.37;100.00;101369.44;4204204;28;20032;-70
2023/11/19 04:29:19;;;;;;;45.15;7.05;;;12.90;99.90;;;12.34;100.00;101363.59;4203248;28;20518;-70
2023/11/19 04:31:20;;;;;;;40.67;6.45;;;12.90;99.90;;;12.36;100.00;101372.25;4195960;28;20033;-70
2023/11/19 04:33:21;;;;;;;44.47;5.50;;;12.90;99.90;;;12.46;100.00;101381.75;4193405;28;20117;-70
2023/11/19 04:35:21;;;;;;;44.28;8.20;;;13.00;99.90;;;12.49;100.00;101377.97;4189229;28;20480;-70
2023/11/19 04:37:22;;;;;;;38.40;6.07;;;13.00;99.90;;;12.49;100.00;101377.97;4186281;28;20041;-70
2023/11/19 04:39:23;;;;;;;37.97;7.57;;;13.10;99.90;;;12.52;100.00;101380.31;4189349;28;20033;-70
2023/11/19 04:41:24;;;;;;;48.20;7.40;;;13.10;99.90;;;12.55;100.00;101393.22;4191216;28;20510;-70
2023/11/19 04:43:25;;;;;;;50.17;9.35;;;13.10;99.90;;;12.57;100.00;101392.09;4187401;28;20033;-70
2023/11/19 04:45:25;;;;;;;49.88;7.45;;;13.10;99.90;;;12.57;100.00;101389.44;4195726;28;20103;-70
2023/11/19 04:47:26;;;;;;;40.55;7.47;;;13.10;99.90;;;12.69;100.00;101390.06;4202722;28;20025;-70
2023/11/19 04:49:27;;;;;;;38.53;7.50;;;13.20;99.90;;;12.67;100.00;101399.94;4192866;28;20054;-70
2023/11/19 04:51:29;;;;;;;54.55;7.15;;;13.20;99.90;;;12.71;100.00;101393.38;4188394;28;20484;-70
2023/11/19 04:53:29;;;;;;;44.83;6.63;;;13.20;99.90;;;12.70;100.00;101384.59;4187320;28;20052;-70
2023/11/19 04:55:30;;;;;;;38.00;7.07;;;13.30;99.90;;;12.69;100.00;101384.75;4187336;28;20037;-70
2023/11/19 04:57:32;;;;;;;43.92;6.70;;;13.30;99.90;;;12.66;100.00;101385.06;4187349;28;20025;-70
2023/11/19 04:59:34;;;;;;;43.25;6.50;;;13.20;99.90;;;12.59;100.00;101379.56;4187107;28;20060;-70
2023/11/19 05:01:35;;;;;;;44.63;8.27;;;13.20;99.90;;;12.53;100.00;101392.56;4185471;28;20043;-70
2023/11/19 05:03:36;;;;;;;38.00;6.85;;;13.10;99.90;;;12.52;100.00;101390.88;4193516;28;20025;-70
2023/11/19 05:05:37;;;;;;;43.58;6.50;;;13.10;99.90;;;12.49;100.00;101385.91;4203839;28;20081;-70
2023/11/19 05:07:38;;;;;;;49.75;7.38;;;13.10;99.90;;;12.49;100.00;101388.53;4203639;28;20479;-70
2023/11/19 05:09:38;;;;;;;55.35;6.95;;;13.10;99.90;;;12.49;100.00;101393.84;4202301;28;20024;-70
2023/11/19 05:11:40;;;;;;;43.75;6.72;;;13.10;99.90;;;12.53;100.00;101400.50;4195902;28;20405;-70
2023/11/19 05:13:41;;;;;;;46.47;7.43;;;13.10;99.90;;;12.54;100.00;101392.44;4207830;28;20085;-70
2023/11/19 05:15:41;;;;;;;39.45;6.30;;;13.10;99.90;;;12.58;100.00;101403.50;4215595;28;20040;-70
2023/11/19 05:17:42;;;;;;;47.67;7.88;;;13.10;99.90;;;12.56;100.00;101398.38;4203772;28;20031;-70
2023/11/19 05:19:43;;;;;;;36.80;7.35;;;13.10;99.90;;;12.60;100.00;101404.22;4203542;28;20388;-70
2023/11/19 05:21:44;;;;;;;43.30;7.63;;;13.20;99.90;;;12.66;100.00;101395.66;4193045;28;20047;-70
2023/11/19 05:23:46;;;;;;;49.42;8.55;;;13.20;99.90;;;12.66;100.00;101387.72;4186836;28;20469;-70
2023/11/19 05:25:47;;;;;;;48.45;7.75;;;13.20;99.90;;;12.67;100.00;101394.66;4186764;28;20017;-70
2023/11/19 05:27:48;;;;;;;37.38;6.45;;;13.20;99.90;;;12.61;100.00;101388.16;4186977;28;20028;-70
2023/11/19 05:29:49;;;;;;;40.10;5.75;;;13.20;99.90;;;12.63;100.00;101395.97;4188021;28;20021;-70
2023/11/19 05:31:50;;;;;;;52.97;9.07;;;13.20;99.90;;;12.71;100.00;101401.31;4190957;28;20051;-70
2023/11/19 05:33:51;;;;;;;38.75;6.03;;;13.20;99.90;;;12.69;100.00;101387.41;4194741;28;20021;-69
2023/11/19 05:35:52;;;;;;;37.63;7.53;;;13.30;99.90;;;12.68;100.00;101391.03;4190540;28;20458;-70
2023/11/19 05:37:53;;;;;;;44.83;7.88;;;13.20;99.90;;;12.67;100.00;101397.31;4203224;28;20016;-70
2023/11/19 05:39:53;;;;;;;39.80;6.38;;;13.20;99.90;;;12.63;100.00;101383.53;4203034;28;20038;-70
2023/11/19 05:41:54;;;;;;;44.08;6.65;;;13.20;99.90;;;12.60;100.00;101391.78;4188128;28;20027;-69
2023/11/19 05:43:55;;;;;;;39.35;7.22;;;13.20;99.90;;;12.62;100.00;101403.06;4186645;28;20503;-70
2023/11/19 05:45:56;;;;;;;45.30;6.80;;;13.20;99.90;;;12.59;100.00;101399.88;4186559;28;20515;-70
2023/11/19 05:47:57;;;;;;;48.22;6.55;;;13.20;99.90;;;12.58;100.00;101406.16;4186514;28;20070;-70
2023/11/19 05:49:58;;;;;;;35.72;6.07;;;13.10;99.90;;;12.49;100.00;101409.72;4185915;28;20462;-70
2023/11/19 05:51:59;;;;;;;35.25;7.20;;;13.10;99.90;;;12.43;100.00;101405.03;4186553;28;20025;-70
2023/11/19 05:54:00;;;;;;;39.92;5.85;;;13.00;99.90;;;12.41;100.00;101405.19;4186264;28;20392;-70
2023/11/19 05:56:03;;;;;;;39.40;6.07;;;13.00;99.90;;;12.36;100.00;101406.63;4206379;28;20031;-70
2023/11/19 05:58:06;;;;;;;44.47;6.95;;;12.90;99.90;;;12.31;100.00;101416.81;4188844;28;20033;-70
2023/11/19 06:00:10;;;;;;;54.10;8.13;;;12.90;99.90;;;12.23;100.00;101414.09;4189593;28;20024;-70
2023/11/19 06:02:11;;;;;;;42.95;6.35;;;12.80;99.90;;;12.18;100.00;101420.66;4194790;28;20032;-69
2023/11/19 06:04:12;;;;;;;38.53;6.43;;;12.80;99.90;;;12.17;100.00;101419.03;4184961;28;20033;-69
2023/11/19 06:06:13;;;;;;;36.90;6.07;;;12.80;99.90;;;12.14;100.00;101421.97;4186112;28;20017;-69
2023/11/19 06:08:14;;;;;;;42.00;7.32;;;12.70;99.90;;;12.12;100.00;101423.09;4186372;28;20507;-70
2023/11/19 06:10:16;;;;;;;38.03;6.68;;;12.70;99.90;;;12.06;100.00;101416.59;4196574;28;20020;-70
2023/11/19 06:12:17;;;;;;;37.63;5.70;;;12.60;99.90;;;11.95;100.00;101415.94;4191373;28;20051;-70
2023/11/19 06:14:18;;;;;;;35.95;7.13;;;12.50;99.90;;;11.96;100.00;101407.88;4184670;28;20037;-70
2023/11/19 06:16:20;;;;;;;51.13;7.50;;;12.50;99.90;;;11.92;100.00;101395.94;4184897;28;20025;-70
2023/11/19 06:18:21;;;;;;;36.65;7.15;;;12.50;99.90;;;11.89;100.00;101406.81;4200337;28;20036;-70
2023/11/19 06:20:21;;;;;;;38.85;7.57;;;12.50;99.90;;;11.86;100.00;101417.69;4202531;28;20024;-70
2023/11/19 06:22:22;;;;;;;47.15;7.00;;;12.40;99.90;;;11.81;100.00;101417.28;4187873;28;20047;-70
2023/11/19 06:24:23;;;;;;;40.30;7.15;;;12.40;99.90;;;11.81;100.00;101414.66;4185850;28;20036;-70
2023/11/19 06:26:24;;;;;;;40.67;6.95;;;12.40;99.90;;;11.80;100.00;101414.81;4186016;28;20025;-70
2023/11/19 06:28:25;;;;;;;40.88;7.15;;;12.40;99.90;;;11.77;100.00;101428.31;4185928;28;20029;-70
2023/11/19 06:30:28;;;;;;;54.97;8.40;;;12.30;99.90;;;11.71;100.00;101421.78;4190069;28;20023;-70
2023/11/19 06:32:29;;;;;;;43.40;7.35;;;12.30;99.90;;;11.64;100.00;101418.88;4185134;28;20048;-70
2023/11/19 06:34:29;;;;;;;36.08;6.95;;;12.20;99.90;;;11.57;100.00;101416.97;4207518;28;20028;-70
2023/11/19 06:36:30;;;;;;;29.00;5.38;;;12.20;99.90;;;11.56;100.00;101421.41;4191550;28;20029;-70
2023/11/19 06:38:31;;;;;;;39.97;6.00;;;12.10;99.90;;;11.58;100.00;101416.84;4187422;28;20025;-70
2023/11/19 06:40:34;;;;;;;41.88;7.80;;;12.10;99.90;;;11.57;100.00;101415.16;4190606;28;20020;-70
2023/11/19 06:42:35;;;;;;;34.13;6.82;;;12.10;99.90;;;11.55;100.00;101411.00;4201247;28;20016;-70
2023/11/19 06:44:36;;;;;;;58.35;9.02;;;12.10;99.90;;;11.52;100.00;101398.91;4202274;28;20035;-70
2023/11/19 06:46:37;;;;;;;37.45;6.20;;;12.10;99.90;;;11.52;100.00;101412.13;4200867;28;20030;-70
2023/11/19 06:48:38;;;;;;;32.80;5.68;;;12.10;99.90;;;11.47;100.00;101408.22;4202270;28;20032;-70
2023/11/19 06:50:39;;;;;;;49.97;11.27;;;12.10;99.90;;;11.48;100.00;101417.84;4200949;28;20017;-70
2023/11/19 06:52:40;;;;;;;37.38;6.70;;;12.10;99.90;;;11.39;100.00;101411.63;4191268;28;20040;-70
2023/11/19 06:54:40;;;;;;;34.67;5.40;;;12.00;99.90;;;11.38;100.00;101423.16;4183893;28;20029;-70
2023/11/19 06:56:41;;;;;;;47.33;6.95;;;11.90;99.90;;;11.32;100.00;101412.34;4185520;28;20029;-70
2023/11/19 06:58:42;;;;;;;43.40;6.30;;;11.90;99.90;;;11.33;100.00;101414.84;4198553;28;20016;-70
2023/11/19 07:00:43;;;;;;;41.28;6.22;;;11.90;99.90;;;11.36;100.00;101419.00;4198928;28;20026;-70
2023/11/19 07:02:44;;;;;;;39.28;6.82;;;11.90;99.90;;;11.34;100.00;101420.94;4186996;28;20025;-70
2023/11/19 07:04:45;;;;;;;43.22;6.43;;;11.90;99.90;;;11.31;100.00;101423.88;4184463;28;20419;-70
2023/11/19 07:06:48;;;;;;;42.78;8.82;;;11.90;99.90;;;11.32;100.00;101425.56;4185384;28;20017;-69
2023/11/19 07:08:48;;;;;;;33.50;7.60;;;11.90;99.90;;;11.30;100.00;101430.13;4200077;28;20474;-70
2023/11/19 07:10:49;;;;;;;40.60;7.78;;;11.90;99.90;;;11.23;100.00;101435.16;4180700;28;20017;-70
2023/11/19 07:12:50;;;;;;;32.90;7.00;;;11.80;99.90;;;11.22;100.00;101422.94;4185462;28;20033;-70
2023/11/19 07:14:51;;;;;;;44.35;7.45;;;11.80;99.90;;;11.32;100.00;101441.41;4191657;28;20021;-69
2023/11/19 07:16:53;;;;;;;32.53;6.28;;;11.80;99.90;;;11.28;100.00;101442.66;4192182;28;20025;-70
2023/11/19 07:18:54;;;;;;;28.65;5.45;;;11.80;99.90;;;11.23;100.00;101452.81;4198866;28;20021;-70
2023/11/19 07:20:55;;;;;;;39.28;6.32;;;11.80;99.90;;;11.18;100.00;101447.13;4199387;28;20093;-70
2023/11/19 07:22:56;;;;;;;46.10;8.13;;;11.80;99.90;;;11.18;100.00;101449.75;4189528;28;20027;-70
2023/11/19 07:24:58;;;;;;;32.00;6.95;;;11.80;99.90;;;11.15;100.00;101458.81;4192662;28;20515;-70
2023/11/19 07:26:59;;;;;;;29.30;5.10;;;11.70;99.90;;;11.16;100.00;101464.94;4185041;28;20025;-70
2023/11/19 07:29:01;;;;;;;40.55;7.97;;;11.70;99.90;;;11.16;100.00;101462.28;4185022;28;20051;-70
2023/11/19 07:31:02;;;;;;;45.60;7.28;;;11.70;99.90;;;11.11;100.00;101458.25;4188945;28;20112;-70
2023/11/19 07:33:03;;;;;;;34.90;7.47;;;11.70;99.90;;;11.13;100.00;101465.22;4188195;28;20061;-70
2023/11/19 07:35:05;;;;;;;32.78;4.90;;;11.70;99.90;;;11.08;100.00;101463.81;4189478;28;20029;-70
2023/11/19 07:37:07;;;;;;;40.92;6.72;;;11.60;99.90;;;11.01;100.00;101452.16;4183952;28;20025;-70
2023/11/19 07:39:08;;;;;;;41.97;6.30;;;11.60;99.90;;;11.02;100.00;101453.00;4185089;28;20092;-70
2023/11/19 07:41:12;;;;;;;41.58;6.65;;;11.60;99.90;;;11.05;100.00;101458.81;4189792;28;20025;-70
2023/11/19 07:43:13;;;;;;;;;;;11.60;99.90;;;11.08;100.00;101461.19;4184227;28;20033;-70
2023/11/19 07:45:14;;;;;;;39.70;6.03;;;11.60;99.90;;;11.06;100.00;101463.13;4186214;28;19977;-70
2023/11/19 07:47:15;;;;;;;41.75;7.38;;;11.60;99.90;;;11.09;100.00;101457.56;4197728;28;20061;-70
2023/11/19 07:49:15;;;;;;;40.67;6.18;;;11.70;99.90;;;11.09;100.00;101465.50;4196442;28;20025;-70
2023/11/19 07:51:16;;;;;;;31.67;5.80;;;11.70;99.90;;;11.14;100.00;101477.44;4199331;28;20392;-70
2023/11/19 07:53:17;;;;;;;32.45;5.60;;;11.70;99.90;;;11.13;100.00;101475.78;4189427;28;20078;-70
2023/11/19 07:55:19;;;;;;;34.75;5.13;;;11.70;99.90;;;11.10;100.00;101471.59;4196845;28;20039;-70
2023/11/19 07:57:20;;;;;;;45.33;6.78;;;11.60;99.90;;;11.11;100.00;101476.72;4220557;28;20485;-70
2023/11/19 07:59:21;;;;;;;40.78;6.38;;;11.70;99.90;;;11.12;100.00;101472.28;4193477;28;20033;-70
2023/11/19 08:01:23;;;;;;;51.50;5.78;;;11.60;99.90;;;11.13;100.00;101467.84;4198090;28;20100;-70
2023/11/19 08:03:24;;;;;;;36.60;6.28;;;11.60;99.90;;;11.18;100.00;101473.53;4197125;28;20024;-70
2023/11/19 08:05:25;;;;;;;45.83;8.13;;;11.70;99.90;;;11.19;100.00;101472.56;4196470;28;20074;-70
2023/11/19 08:07:26;;;;;;;40.40;6.30;;;11.70;99.90;;;11.17;100.00;101464.75;4188198;28;20048;-70
2023/11/19 08:09:27;;;;;;;39.15;6.78;;;11.70;99.90;;;11.23;100.00;101477.41;4187937;28;20451;-70
2023/11/19 08:11:28;;;;;;;37.92;5.70;;;11.70;99.90;;;11.25;100.00;101479.91;4199180;28;20384;-70
2023/11/19 08:13:29;;;;;;;36.75;5.82;;;11.80;99.90;;;11.25;100.00;101486.03;4204648;28;20031;-70
2023/11/19 08:15:30;;;;;;;34.67;4.85;;;11.80;99.90;;;11.22;100.00;101480.19;4204646;28;20032;-70